Terminal Aerodrome Forecast
Issued by NWS Wilmington, OH

Home | Current Version | Previous Version | Text Only | Print | Product List | Glossary On
Versions: 1 2 3 4 5 6 7 8 9 10 11 12 13 14 15
000
FTUS41 KILN 280539
TAFDAY
TAF
KDAY 280539Z 2806/2906 09003KT P6SM SKC
      TEMPO 2810/2812 5SM BR SCT250
     FM281200 13006KT P6SM BKN250=

USA.gov is the U.S. government's official web portal to all federal, state and local government web resources and services.